sensor_id;sensor_type;location;lat;lon;timestamp;temperature;humidity
10300;DHT22;5195;48.562;9.192;2024-03-08T00:00:07;6.40;50.60
10300;DHT22;5195;48.562;9.192;2024-03-08T00:02:47;6.20;51.20
10300;DHT22;5195;48.562;9.192;2024-03-08T00:05:23;6.30;50.70
10300;DHT22;5195;48.562;9.192;2024-03-08T00:07:59;6.00;51.40
10300;DHT22;5195;48.562;9.192;2024-03-08T00:10:34;6.00;51.40
10300;DHT22;5195;48.562;9.192;2024-03-08T00:13:10;5.80;51.90
10300;DHT22;5195;48.562;9.192;2024-03-08T00:15:46;5.70;52.30
10300;DHT22;5195;48.562;9.192;2024-03-08T00:18:21;5.80;51.60
10300;DHT22;5195;48.562;9.192;2024-03-08T00:20:57;5.90;51.60
10300;DHT22;5195;48.562;9.192;2024-03-08T00:23:32;6.10;51.00
10300;DHT22;5195;48.562;9.192;2024-03-08T00:26:08;6.00;51.10
10300;DHT22;5195;48.562;9.192;2024-03-08T00:28:44;5.70;52.10
10300;DHT22;5195;48.562;9.192;2024-03-08T00:31:20;5.70;52.10
10300;DHT22;5195;48.562;9.192;2024-03-08T00:33:56;5.50;52.40
10300;DHT22;5195;48.562;9.192;2024-03-08T00:36:32;5.80;51.80
10300;DHT22;5195;48.562;9.192;2024-03-08T00:39:07;5.70;51.70
10300;DHT22;5195;48.562;9.192;2024-03-08T00:41:43;5.90;51.10
10300;DHT22;5195;48.562;9.192;2024-03-08T00:44:19;6.20;50.40
10300;DHT22;5195;48.562;9.192;2024-03-08T00:46:56;6.10;50.50
10300;DHT22;5195;48.562;9.192;2024-03-08T00:49:31;5.90;51.10
10300;DHT22;5195;48.562;9.192;2024-03-08T00:52:08;5.80;51.20
10300;DHT22;5195;48.562;9.192;2024-03-08T00:54:43;5.80;51.70
10300;DHT22;5195;48.562;9.192;2024-03-08T00:57:19;5.80;51.40
10300;DHT22;5195;48.562;9.192;2024-03-08T00:59:55;5.50;51.70
10300;DHT22;5195;48.562;9.192;2024-03-08T01:02:30;5.40;52.20
10300;DHT22;5195;48.562;9.192;2024-03-08T01:05:06;5.60;51.60
10300;DHT22;5195;48.562;9.192;2024-03-08T01:07:45;5.60;51.60
10300;DHT22;5195;48.562;9.192;2024-03-08T01:10:20;5.50;52.00
10300;DHT22;5195;48.562;9.192;2024-03-08T01:12:56;5.30;52.40
10300;DHT22;5195;48.562;9.192;2024-03-08T01:15:31;5.50;51.80
10300;DHT22;5195;48.562;9.192;2024-03-08T01:18:08;5.30;52.20
10300;DHT22;5195;48.562;9.192;2024-03-08T01:20:43;5.30;52.20
10300;DHT22;5195;48.562;9.192;2024-03-08T01:23:19;5.20;52.60
10300;DHT22;5195;48.562;9.192;2024-03-08T01:25:55;5.40;52.00
10300;DHT22;5195;48.562;9.192;2024-03-08T01:28:30;5.80;51.10
10300;DHT22;5195;48.562;9.192;2024-03-08T01:31:06;5.70;51.00
10300;DHT22;5195;48.562;9.192;2024-03-08T01:33:42;5.50;51.60
10300;DHT22;5195;48.562;9.192;2024-03-08T01:36:19;5.60;51.40
10300;DHT22;5195;48.562;9.192;2024-03-08T01:38:54;5.60;51.30
10300;DHT22;5195;48.562;9.192;2024-03-08T01:41:30;5.40;51.80
10300;DHT22;5195;48.562;9.192;2024-03-08T01:44:06;5.50;51.20
10300;DHT22;5195;48.562;9.192;2024-03-08T01:46:41;5.50;51.40
10300;DHT22;5195;48.562;9.192;2024-03-08T01:49:17;5.60;50.90
10300;DHT22;5195;48.562;9.192;2024-03-08T01:51:52;5.90;50.30
10300;DHT22;5195;48.562;9.192;2024-03-08T01:54:28;5.80;50.50
10300;DHT22;5195;48.562;9.192;2024-03-08T01:57:04;5.20;51.70
10300;DHT22;5195;48.562;9.192;2024-03-08T01:59:40;5.20;51.70
10300;DHT22;5195;48.562;9.192;2024-03-08T02:02:16;5.30;51.40
10300;DHT22;5195;48.562;9.192;2024-03-08T02:04:51;5.70;50.80
10300;DHT22;5195;48.562;9.192;2024-03-08T02:07:27;5.60;50.90
10300;DHT22;5195;48.562;9.192;2024-03-08T02:10:04;5.70;51.20
10300;DHT22;5195;48.562;9.192;2024-03-08T02:12:39;5.90;50.30
10300;DHT22;5195;48.562;9.192;2024-03-08T02:15:15;5.90;50.20
10300;DHT22;5195;48.562;9.192;2024-03-08T02:17:51;5.80;50.10
10300;DHT22;5195;48.562;9.192;2024-03-08T02:20:28;5.50;50.80
10300;DHT22;5195;48.562;9.192;2024-03-08T02:23:03;5.30;51.20
10300;DHT22;5195;48.562;9.192;2024-03-08T02:25:39;5.30;51.20
10300;DHT22;5195;48.562;9.192;2024-03-08T02:28:15;5.40;50.90
10300;DHT22;5195;48.562;9.192;2024-03-08T02:30:51;5.30;50.80
10300;DHT22;5195;48.562;9.192;2024-03-08T02:33:28;5.60;50.20
10300;DHT22;5195;48.562;9.192;2024-03-08T02:36:02;5.80;49.60
10300;DHT22;5195;48.562;9.192;2024-03-08T02:38:37;5.60;49.90
10300;DHT22;5195;48.562;9.192;2024-03-08T02:41:13;5.70;50.00
10300;DHT22;5195;48.562;9.192;2024-03-08T02:43:49;5.80;49.60
10300;DHT22;5195;48.562;9.192;2024-03-08T02:46:24;5.60;50.00
10300;DHT22;5195;48.562;9.192;2024-03-08T02:49:00;5.30;50.70
10300;DHT22;5195;48.562;9.192;2024-03-08T02:51:35;5.30;50.60
10300;DHT22;5195;48.562;9.192;2024-03-08T02:54:12;5.00;52.20
10300;DHT22;5195;48.562;9.192;2024-03-08T02:56:47;4.90;51.40
10300;DHT22;5195;48.562;9.192;2024-03-08T02:59:23;5.10;51.40
10300;DHT22;5195;48.562;9.192;2024-03-08T03:01:59;5.60;50.10
10300;DHT22;5195;48.562;9.192;2024-03-08T03:04:35;5.60;50.10
10300;DHT22;5195;48.562;9.192;2024-03-08T03:07:10;5.50;50.30
10300;DHT22;5195;48.562;9.192;2024-03-08T03:09:46;5.10;50.80
10300;DHT22;5195;48.562;9.192;2024-03-08T03:12:22;5.20;50.90
10300;DHT22;5195;48.562;9.192;2024-03-08T03:14:57;5.00;50.90
10300;DHT22;5195;48.562;9.192;2024-03-08T03:17:33;4.80;51.50
10300;DHT22;5195;48.562;9.192;2024-03-08T03:20:08;4.90;51.40
10300;DHT22;5195;48.562;9.192;2024-03-08T03:22:51;4.90;51.50
10300;DHT22;5195;48.562;9.192;2024-03-08T03:25:29;5.00;51.30
10300;DHT22;5195;48.562;9.192;2024-03-08T03:28:05;4.90;51.40
10300;DHT22;5195;48.562;9.192;2024-03-08T03:30:41;4.70;51.30
10300;DHT22;5195;48.562;9.192;2024-03-08T03:33:16;4.40;52.20
10300;DHT22;5195;48.562;9.192;2024-03-08T03:35:52;4.30;52.70
10300;DHT22;5195;48.562;9.192;2024-03-08T03:38:28;4.30;52.80
10300;DHT22;5195;48.562;9.192;2024-03-08T03:41:04;4.30;52.80
10300;DHT22;5195;48.562;9.192;2024-03-08T03:43:39;4.40;52.80
10300;DHT22;5195;48.562;9.192;2024-03-08T03:46:16;4.10;53.40
10300;DHT22;5195;48.562;9.192;2024-03-08T03:48:53;4.10;53.30
10300;DHT22;5195;48.562;9.192;2024-03-08T03:51:29;3.90;53.60
10300;DHT22;5195;48.562;9.192;2024-03-08T03:54:05;3.80;53.80
10300;DHT22;5195;48.562;9.192;2024-03-08T03:56:41;4.00;53.90
10300;DHT22;5195;48.562;9.192;2024-03-08T03:59:17;4.00;53.80
10300;DHT22;5195;48.562;9.192;2024-03-08T04:01:53;4.40;53.00
10300;DHT22;5195;48.562;9.192;2024-03-08T04:04:29;4.20;53.10
10300;DHT22;5195;48.562;9.192;2024-03-08T04:07:04;4.20;53.10
10300;DHT22;5195;48.562;9.192;2024-03-08T04:09:40;4.40;53.00
10300;DHT22;5195;48.562;9.192;2024-03-08T04:12:15;4.70;52.40
10300;DHT22;5195;48.562;9.192;2024-03-08T04:14:51;4.60;52.30
10300;DHT22;5195;48.562;9.192;2024-03-08T04:17:27;4.40;52.80
10300;DHT22;5195;48.562;9.192;2024-03-08T04:20:03;4.70;52.10
10300;DHT22;5195;48.562;9.192;2024-03-08T04:22:39;4.70;52.10
10300;DHT22;5195;48.562;9.192;2024-03-08T04:25:16;4.70;52.20
10300;DHT22;5195;48.562;9.192;2024-03-08T04:27:52;5.00;52.00
10300;DHT22;5195;48.562;9.192;2024-03-08T04:30:27;4.90;51.50
10300;DHT22;5195;48.562;9.192;2024-03-08T04:33:04;4.90;51.20
10300;DHT22;5195;48.562;9.192;2024-03-08T04:35:39;4.90;51.20
10300;DHT22;5195;48.562;9.192;2024-03-08T04:38:15;4.90;51.30
10300;DHT22;5195;48.562;9.192;2024-03-08T04:40:51;4.90;51.80
10300;DHT22;5195;48.562;9.192;2024-03-08T04:43:27;4.90;51.10
10300;DHT22;5195;48.562;9.192;2024-03-08T04:46:03;4.60;51.80
10300;DHT22;5195;48.562;9.192;2024-03-08T04:48:38;4.30;52.50
10300;DHT22;5195;48.562;9.192;2024-03-08T04:51:14;4.00;52.90
10300;DHT22;5195;48.562;9.192;2024-03-08T04:53:49;4.20;53.00
10300;DHT22;5195;48.562;9.192;2024-03-08T04:56:25;4.20;52.90
10300;DHT22;5195;48.562;9.192;2024-03-08T04:59:00;4.00;53.30
10300;DHT22;5195;48.562;9.192;2024-03-08T05:01:36;3.80;53.60
10300;DHT22;5195;48.562;9.192;2024-03-08T05:04:13;3.70;54.00
10300;DHT22;5195;48.562;9.192;2024-03-08T05:06:49;3.60;54.20
10300;DHT22;5195;48.562;9.192;2024-03-08T05:09:24;3.50;54.50
10300;DHT22;5195;48.562;9.192;2024-03-08T05:12:00;3.40;54.70
10300;DHT22;5195;48.562;9.192;2024-03-08T05:14:55;3.70;54.50
10300;DHT22;5195;48.562;9.192;2024-03-08T05:17:32;4.10;53.70
10300;DHT22;5195;48.562;9.192;2024-03-08T05:20:08;4.10;53.50
10300;DHT22;5195;48.562;9.192;2024-03-08T05:22:45;3.80;53.80
10300;DHT22;5195;48.562;9.192;2024-03-08T05:25:21;3.60;54.10
10300;DHT22;5195;48.562;9.192;2024-03-08T05:27:56;3.50;54.50
10300;DHT22;5195;48.562;9.192;2024-03-08T05:30:32;3.70;54.30
10300;DHT22;5195;48.562;9.192;2024-03-08T05:33:08;4.10;53.70
10300;DHT22;5195;48.562;9.192;2024-03-08T05:35:43;4.40;52.90
10300;DHT22;5195;48.562;9.192;2024-03-08T05:38:19;4.30;53.10
10300;DHT22;5195;48.562;9.192;2024-03-08T05:40:54;4.30;52.90
10300;DHT22;5195;48.562;9.192;2024-03-08T05:43:31;4.20;52.90
10300;DHT22;5195;48.562;9.192;2024-03-08T05:46:08;4.30;53.00
10300;DHT22;5195;48.562;9.192;2024-03-08T05:48:44;4.50;52.50
10300;DHT22;5195;48.562;9.192;2024-03-08T05:51:19;4.80;52.10
10300;DHT22;5195;48.562;9.192;2024-03-08T05:53:55;4.70;52.40
10300;DHT22;5195;48.562;9.192;2024-03-08T05:56:32;4.40;53.30
10300;DHT22;5195;48.562;9.192;2024-03-08T05:59:07;4.40;53.00
10300;DHT22;5195;48.562;9.192;2024-03-08T06:01:45;5.00;52.00
10300;DHT22;5195;48.562;9.192;2024-03-08T06:04:20;5.00;52.00
10300;DHT22;5195;48.562;9.192;2024-03-08T06:06:56;4.90;52.30
10300;DHT22;5195;48.562;9.192;2024-03-08T06:09:31;4.60;52.90
10300;DHT22;5195;48.562;9.192;2024-03-08T06:12:07;4.70;53.00
10300;DHT22;5195;48.562;9.192;2024-03-08T06:14:43;4.70;53.20
10300;DHT22;5195;48.562;9.192;2024-03-08T06:17:18;4.60;53.70
10300;DHT22;5195;48.562;9.192;2024-03-08T06:19:54;4.70;54.10
10300;DHT22;5195;48.562;9.192;2024-03-08T06:22:29;5.10;52.60
10300;DHT22;5195;48.562;9.192;2024-03-08T06:25:06;4.90;53.30
10300;DHT22;5195;48.562;9.192;2024-03-08T06:27:42;4.90;53.30
10300;DHT22;5195;48.562;9.192;2024-03-08T06:30:17;4.70;53.80
10300;DHT22;5195;48.562;9.192;2024-03-08T06:32:53;4.60;54.20
10300;DHT22;5195;48.562;9.192;2024-03-08T06:35:28;4.80;53.70
10300;DHT22;5195;48.562;9.192;2024-03-08T06:38:04;4.90;53.60
10300;DHT22;5195;48.562;9.192;2024-03-08T06:40:39;4.80;54.00
10300;DHT22;5195;48.562;9.192;2024-03-08T06:43:15;4.90;53.30
10300;DHT22;5195;48.562;9.192;2024-03-08T06:45:54;4.90;53.80
10300;DHT22;5195;48.562;9.192;2024-03-08T06:48:30;4.80;53.70
10300;DHT22;5195;48.562;9.192;2024-03-08T06:51:06;5.00;53.10
10300;DHT22;5195;48.562;9.192;2024-03-08T06:53:41;5.10;53.90
10300;DHT22;5195;48.562;9.192;2024-03-08T06:56:18;5.30;52.50
10300;DHT22;5195;48.562;9.192;2024-03-08T06:59:01;5.30;52.60
10300;DHT22;5195;48.562;9.192;2024-03-08T07:01:41;5.40;52.10
10300;DHT22;5195;48.562;9.192;2024-03-08T07:04:16;5.40;52.40
10300;DHT22;5195;48.562;9.192;2024-03-08T07:06:52;5.30;53.10
10300;DHT22;5195;48.562;9.192;2024-03-08T07:09:28;5.40;52.70
10300;DHT22;5195;48.562;9.192;2024-03-08T07:12:04;5.40;52.70
10300;DHT22;5195;48.562;9.192;2024-03-08T07:14:40;5.60;52.20
10300;DHT22;5195;48.562;9.192;2024-03-08T07:17:15;6.00;51.80
10300;DHT22;5195;48.562;9.192;2024-03-08T07:19:52;5.80;52.50
10300;DHT22;5195;48.562;9.192;2024-03-08T07:22:27;5.70;52.40
10300;DHT22;5195;48.562;9.192;2024-03-08T07:25:03;5.90;51.90
10300;DHT22;5195;48.562;9.192;2024-03-08T07:27:58;5.90;52.00
10300;DHT22;5195;48.562;9.192;2024-03-08T07:30:33;6.00;51.20
10300;DHT22;5195;48.562;9.192;2024-03-08T07:33:19;6.00;51.60
10300;DHT22;5195;48.562;9.192;2024-03-08T07:35:54;5.90;52.30
10300;DHT22;5195;48.562;9.192;2024-03-08T07:38:30;6.00;51.80
10300;DHT22;5195;48.562;9.192;2024-03-08T07:41:05;6.00;52.10
10300;DHT22;5195;48.562;9.192;2024-03-08T07:43:41;6.20;51.30
10300;DHT22;5195;48.562;9.192;2024-03-08T07:46:17;6.30;51.80
10300;DHT22;5195;48.562;9.192;2024-03-08T07:48:53;6.30;51.60
10300;DHT22;5195;48.562;9.192;2024-03-08T07:51:29;6.20;51.60
10300;DHT22;5195;48.562;9.192;2024-03-08T07:54:04;6.60;51.40
10300;DHT22;5195;48.562;9.192;2024-03-08T07:56:40;6.90;50.00
10300;DHT22;5195;48.562;9.192;2024-03-08T07:59:15;6.90;50.50
10300;DHT22;5195;48.562;9.192;2024-03-08T08:01:51;6.70;51.50
10300;DHT22;5195;48.562;9.192;2024-03-08T08:04:26;6.80;51.40
10300;DHT22;5195;48.562;9.192;2024-03-08T08:07:03;6.70;52.20
10300;DHT22;5195;48.562;9.192;2024-03-08T08:09:38;6.70;52.20
10300;DHT22;5195;48.562;9.192;2024-03-08T08:12:15;6.50;53.30
10300;DHT22;5195;48.562;9.192;2024-03-08T08:14:50;6.50;53.30
10300;DHT22;5195;48.562;9.192;2024-03-08T08:17:26;6.50;53.70
10300;DHT22;5195;48.562;9.192;2024-03-08T08:20:01;6.70;52.50
10300;DHT22;5195;48.562;9.192;2024-03-08T08:22:38;6.80;52.60
10300;DHT22;5195;48.562;9.192;2024-03-08T08:25:13;6.80;53.10
10300;DHT22;5195;48.562;9.192;2024-03-08T08:27:48;7.00;51.80
10300;DHT22;5195;48.562;9.192;2024-03-08T08:30:25;7.30;50.70
10300;DHT22;5195;48.562;9.192;2024-03-08T08:33:00;7.20;50.60
10300;DHT22;5195;48.562;9.192;2024-03-08T08:35:38;7.60;49.20
10300;DHT22;5195;48.562;9.192;2024-03-08T08:38:11;7.90;48.40
10300;DHT22;5195;48.562;9.192;2024-03-08T08:40:47;7.80;49.10
10300;DHT22;5195;48.562;9.192;2024-03-08T08:43:22;7.90;48.40
10300;DHT22;5195;48.562;9.192;2024-03-08T08:45:58;8.10;47.30
10300;DHT22;5195;48.562;9.192;2024-03-08T08:48:34;8.20;47.00
10300;DHT22;5195;48.562;9.192;2024-03-08T08:51:09;8.20;47.90
10300;DHT22;5195;48.562;9.192;2024-03-08T08:53:45;8.10;47.60
10300;DHT22;5195;48.562;9.192;2024-03-08T08:56:20;8.10;48.60
10300;DHT22;5195;48.562;9.192;2024-03-08T08:58:56;7.80;49.30
10300;DHT22;5195;48.562;9.192;2024-03-08T09:01:32;7.90;48.30
10300;DHT22;5195;48.562;9.192;2024-03-08T09:04:07;7.80;49.20
10300;DHT22;5195;48.562;9.192;2024-03-08T09:06:43;8.00;48.50
10300;DHT22;5195;48.562;9.192;2024-03-08T09:09:19;8.10;48.00
10300;DHT22;5195;48.562;9.192;2024-03-08T09:11:55;8.10;47.90
10300;DHT22;5195;48.562;9.192;2024-03-08T09:14:30;8.40;46.80
10300;DHT22;5195;48.562;9.192;2024-03-08T09:17:06;8.60;46.50
10300;DHT22;5195;48.562;9.192;2024-03-08T09:19:41;8.50;47.40
10300;DHT22;5195;48.562;9.192;2024-03-08T09:22:17;8.20;48.60
10300;DHT22;5195;48.562;9.192;2024-03-08T09:24:53;8.00;49.50
10300;DHT22;5195;48.562;9.192;2024-03-08T09:27:28;8.20;48.30
10300;DHT22;5195;48.562;9.192;2024-03-08T09:30:04;8.50;47.70
10300;DHT22;5195;48.562;9.192;2024-03-08T09:32:40;8.60;48.40
10300;DHT22;5195;48.562;9.192;2024-03-08T09:35:16;9.00;45.80
10300;DHT22;5195;48.562;9.192;2024-03-08T09:37:52;8.90;47.30
10300;DHT22;5195;48.562;9.192;2024-03-08T09:40:28;9.00;47.10
10300;DHT22;5195;48.562;9.192;2024-03-08T09:43:04;9.30;45.50
10300;DHT22;5195;48.562;9.192;2024-03-08T09:45:40;9.30;45.50
10300;DHT22;5195;48.562;9.192;2024-03-08T09:48:16;9.00;47.30
10300;DHT22;5195;48.562;9.192;2024-03-08T09:50:52;9.00;47.30
10300;DHT22;5195;48.562;9.192;2024-03-08T09:53:28;9.40;45.60
10300;DHT22;5195;48.562;9.192;2024-03-08T09:56:04;9.30;45.50
10300;DHT22;5195;48.562;9.192;2024-03-08T09:58:39;9.30;46.60
10300;DHT22;5195;48.562;9.192;2024-03-08T10:01:18;9.10;47.70
10300;DHT22;5195;48.562;9.192;2024-03-08T10:03:54;9.20;45.90
10300;DHT22;5195;48.562;9.192;2024-03-08T10:06:29;9.50;45.40
10300;DHT22;5195;48.562;9.192;2024-03-08T10:09:05;9.50;46.60
10300;DHT22;5195;48.562;9.192;2024-03-08T10:11:41;9.60;45.70
10300;DHT22;5195;48.562;9.192;2024-03-08T10:14:16;9.50;46.70
10300;DHT22;5195;48.562;9.192;2024-03-08T10:16:52;9.70;45.40
10300;DHT22;5195;48.562;9.192;2024-03-08T10:19:27;9.60;46.20
10300;DHT22;5195;48.562;9.192;2024-03-08T10:22:03;9.50;47.20
10300;DHT22;5195;48.562;9.192;2024-03-08T10:24:39;9.60;45.20
10300;DHT22;5195;48.562;9.192;2024-03-08T10:27:16;9.80;44.40
10300;DHT22;5195;48.562;9.192;2024-03-08T10:29:50;10.10;43.00
10300;DHT22;5195;48.562;9.192;2024-03-08T10:32:25;10.00;43.70
10300;DHT22;5195;48.562;9.192;2024-03-08T10:35:01;9.70;46.10
10300;DHT22;5195;48.562;9.192;2024-03-08T10:37:48;9.80;45.10
10300;DHT22;5195;48.562;9.192;2024-03-08T10:40:23;9.70;46.10
10300;DHT22;5195;48.562;9.192;2024-03-08T10:42:59;9.60;46.90
10300;DHT22;5195;48.562;9.192;2024-03-08T10:45:37;9.60;44.90
10300;DHT22;5195;48.562;9.192;2024-03-08T10:48:32;9.60;44.70
10300;DHT22;5195;48.562;9.192;2024-03-08T10:51:08;9.60;44.70
10300;DHT22;5195;48.562;9.192;2024-03-08T10:53:44;9.90;44.10
10300;DHT22;5195;48.562;9.192;2024-03-08T10:56:19;9.80;45.30
10300;DHT22;5195;48.562;9.192;2024-03-08T10:58:55;9.90;44.20
10300;DHT22;5195;48.562;9.192;2024-03-08T11:01:30;9.80;45.40
10300;DHT22;5195;48.562;9.192;2024-03-08T11:04:06;9.80;44.40
10300;DHT22;5195;48.562;9.192;2024-03-08T11:06:42;10.00;42.70
10300;DHT22;5195;48.562;9.192;2024-03-08T11:09:31;10.10;42.90
10300;DHT22;5195;48.562;9.192;2024-03-08T11:12:29;10.00;43.80
10300;DHT22;5195;48.562;9.192;2024-03-08T11:15:12;9.70;46.00
10300;DHT22;5195;48.562;9.192;2024-03-08T11:17:47;9.80;44.80
10300;DHT22;5195;48.562;9.192;2024-03-08T11:20:23;9.70;45.70
10300;DHT22;5195;48.562;9.192;2024-03-08T11:23:03;9.50;45.00
10300;DHT22;5195;48.562;9.192;2024-03-08T11:25:38;9.50;45.00
10300;DHT22;5195;48.562;9.192;2024-03-08T11:28:17;9.40;46.10
10300;DHT22;5195;48.562;9.192;2024-03-08T11:33:39;9.60;47.10
10300;DHT22;5195;48.562;9.192;2024-03-08T11:36:20;10.10;44.50
10300;DHT22;5195;48.562;9.192;2024-03-08T11:38:53;10.30;45.30
10300;DHT22;5195;48.562;9.192;2024-03-08T11:41:28;10.40;43.20
10300;DHT22;5195;48.562;9.192;2024-03-08T11:44:04;10.40;44.10
10300;DHT22;5195;48.562;9.192;2024-03-08T11:46:42;10.50;42.70
10300;DHT22;5195;48.562;9.192;2024-03-08T11:49:19;10.60;42.80
10300;DHT22;5195;48.562;9.192;2024-03-08T11:51:54;10.60;43.40
10300;DHT22;5195;48.562;9.192;2024-03-08T11:54:30;10.60;43.70
10300;DHT22;5195;48.562;9.192;2024-03-08T11:57:05;10.70;42.90
10300;DHT22;5195;48.562;9.192;2024-03-08T11:59:41;11.00;42.40
10300;DHT22;5195;48.562;9.192;2024-03-08T12:02:17;11.20;41.60
10300;DHT22;5195;48.562;9.192;2024-03-08T12:04:59;11.20;42.60
10300;DHT22;5195;48.562;9.192;2024-03-08T12:07:33;10.80;44.80
10300;DHT22;5195;48.562;9.192;2024-03-08T12:10:22;10.90;43.00
10300;DHT22;5195;48.562;9.192;2024-03-08T12:12:56;10.90;43.00
10300;DHT22;5195;48.562;9.192;2024-03-08T12:15:31;10.90;44.00
10300;DHT22;5195;48.562;9.192;2024-03-08T12:18:07;11.10;43.00
10300;DHT22;5195;48.562;9.192;2024-03-08T12:20:42;11.10;43.80
10300;DHT22;5195;48.562;9.192;2024-03-08T12:23:19;11.20;42.00
10300;DHT22;5195;48.562;9.192;2024-03-08T12:25:55;11.60;40.30
10300;DHT22;5195;48.562;9.192;2024-03-08T12:28:31;11.60;40.30
10300;DHT22;5195;48.562;9.192;2024-03-08T12:31:07;11.60;41.60
10300;DHT22;5195;48.562;9.192;2024-03-08T12:33:53;11.50;40.80
10300;DHT22;5195;48.562;9.192;2024-03-08T12:36:28;11.70;41.00
10300;DHT22;5195;48.562;9.192;2024-03-08T12:39:05;11.80;40.40
10300;DHT22;5195;48.562;9.192;2024-03-08T12:41:40;11.80;42.10
10300;DHT22;5195;48.562;9.192;2024-03-08T12:44:15;11.50;42.80
10300;DHT22;5195;48.562;9.192;2024-03-08T12:46:51;11.20;43.60
10300;DHT22;5195;48.562;9.192;2024-03-08T12:49:26;11.30;42.60
10300;DHT22;5195;48.562;9.192;2024-03-08T12:52:02;11.30;43.30
10300;DHT22;5195;48.562;9.192;2024-03-08T12:54:38;11.10;44.00
10300;DHT22;5195;48.562;9.192;2024-03-08T12:57:14;11.20;43.30
10300;DHT22;5195;48.562;9.192;2024-03-08T12:59:51;11.20;43.20
10300;DHT22;5195;48.562;9.192;2024-03-08T13:02:27;11.00;44.00
10300;DHT22;5195;48.562;9.192;2024-03-08T13:05:02;10.90;44.90
10300;DHT22;5195;48.562;9.192;2024-03-08T13:07:41;11.00;42.50
10300;DHT22;5195;48.562;9.192;2024-03-08T13:10:16;11.10;43.60
10300;DHT22;5195;48.562;9.192;2024-03-08T13:12:52;11.20;42.20
10300;DHT22;5195;48.562;9.192;2024-03-08T13:15:27;11.30;43.50
10300;DHT22;5195;48.562;9.192;2024-03-08T13:18:03;11.10;44.20
10300;DHT22;5195;48.562;9.192;2024-03-08T13:20:41;11.30;43.00
10300;DHT22;5195;48.562;9.192;2024-03-08T13:23:17;11.20;44.60
10300;DHT22;5195;48.562;9.192;2024-03-08T13:25:53;11.10;44.40
10300;DHT22;5195;48.562;9.192;2024-03-08T13:28:30;11.20;43.70
10300;DHT22;5195;48.562;9.192;2024-03-08T13:31:05;11.20;43.70
10300;DHT22;5195;48.562;9.192;2024-03-08T13:33:48;11.60;43.10
10300;DHT22;5195;48.562;9.192;2024-03-08T13:36:25;11.90;42.90
10300;DHT22;5195;48.562;9.192;2024-03-08T13:39:00;12.10;41.60
10300;DHT22;5195;48.562;9.192;2024-03-08T13:41:36;12.00;42.90
10300;DHT22;5195;48.562;9.192;2024-03-08T13:44:11;11.80;43.90
10300;DHT22;5195;48.562;9.192;2024-03-08T13:46:47;11.60;44.80
10300;DHT22;5195;48.562;9.192;2024-03-08T13:49:23;11.20;45.90
10300;DHT22;5195;48.562;9.192;2024-03-08T13:51:59;11.20;45.90
10300;DHT22;5195;48.562;9.192;2024-03-08T13:54:36;11.70;43.10
10300;DHT22;5195;48.562;9.192;2024-03-08T13:57:11;11.60;43.00
10300;DHT22;5195;48.562;9.192;2024-03-08T13:59:48;11.60;43.80
10300;DHT22;5195;48.562;9.192;2024-03-08T14:02:23;11.70;42.50
10300;DHT22;5195;48.562;9.192;2024-03-08T14:04:59;11.60;43.50
10300;DHT22;5195;48.562;9.192;2024-03-08T14:07:38;11.70;43.30
10300;DHT22;5195;48.562;9.192;2024-03-08T14:10:15;11.70;42.70
10300;DHT22;5195;48.562;9.192;2024-03-08T14:12:50;11.70;42.70
10300;DHT22;5195;48.562;9.192;2024-03-08T14:15:25;11.70;43.80
10300;DHT22;5195;48.562;9.192;2024-03-08T14:18:01;11.50;44.50
10300;DHT22;5195;48.562;9.192;2024-03-08T14:20:36;11.30;45.30
10300;DHT22;5195;48.562;9.192;2024-03-08T14:23:12;11.10;45.90
10300;DHT22;5195;48.562;9.192;2024-03-08T14:25:49;11.00;46.40
10300;DHT22;5195;48.562;9.192;2024-03-08T14:28:25;11.30;45.30
10300;DHT22;5195;48.562;9.192;2024-03-08T14:31:01;11.30;45.10
10300;DHT22;5195;48.562;9.192;2024-03-08T14:33:36;11.50;43.60
10300;DHT22;5195;48.562;9.192;2024-03-08T14:36:12;11.80;43.00
10300;DHT22;5195;48.562;9.192;2024-03-08T14:38:47;12.10;42.30
10300;DHT22;5195;48.562;9.192;2024-03-08T14:41:24;11.80;44.10
10300;DHT22;5195;48.562;9.192;2024-03-08T14:43:59;11.80;44.10
10300;DHT22;5195;48.562;9.192;2024-03-08T14:46:35;11.60;44.70
10300;DHT22;5195;48.562;9.192;2024-03-08T14:49:11;11.30;46.00
10300;DHT22;5195;48.562;9.192;2024-03-08T14:51:48;11.30;46.00
10300;DHT22;5195;48.562;9.192;2024-03-08T14:54:24;11.20;46.20
10300;DHT22;5195;48.562;9.192;2024-03-08T14:56:59;11.20;46.40
10300;DHT22;5195;48.562;9.192;2024-03-08T14:59:35;11.70;42.80
10300;DHT22;5195;48.562;9.192;2024-03-08T15:02:12;11.70;42.60
10300;DHT22;5195;48.562;9.192;2024-03-08T15:04:48;11.80;43.90
10300;DHT22;5195;48.562;9.192;2024-03-08T15:07:26;11.90;42.70
10300;DHT22;5195;48.562;9.192;2024-03-08T15:10:02;12.20;41.30
10300;DHT22;5195;48.562;9.192;2024-03-08T15:12:38;12.10;42.40
10300;DHT22;5195;48.562;9.192;2024-03-08T15:15:15;12.10;40.90
10300;DHT22;5195;48.562;9.192;2024-03-08T15:17:54;12.40;40.60
10300;DHT22;5195;48.562;9.192;2024-03-08T15:20:29;12.50;40.10
10300;DHT22;5195;48.562;9.192;2024-03-08T15:23:05;12.40;41.40
10300;DHT22;5195;48.562;9.192;2024-03-08T15:25:40;12.10;42.30
10300;DHT22;5195;48.562;9.192;2024-03-08T15:28:16;12.10;41.20
10300;DHT22;5195;48.562;9.192;2024-03-08T15:30:52;12.00;42.40
10300;DHT22;5195;48.562;9.192;2024-03-08T15:33:27;12.00;41.40
10300;DHT22;5195;48.562;9.192;2024-03-08T15:36:04;12.40;40.90
10300;DHT22;5195;48.562;9.192;2024-03-08T15:38:40;12.40;40.90
10300;DHT22;5195;48.562;9.192;2024-03-08T15:41:15;12.20;42.00
10300;DHT22;5195;48.562;9.192;2024-03-08T15:43:50;12.20;41.40
10300;DHT22;5195;48.562;9.192;2024-03-08T15:46:26;12.10;42.60
10300;DHT22;5195;48.562;9.192;2024-03-08T15:49:02;12.10;41.60
10300;DHT22;5195;48.562;9.192;2024-03-08T15:51:37;12.30;41.90
10300;DHT22;5195;48.562;9.192;2024-03-08T15:54:13;12.10;42.40
10300;DHT22;5195;48.562;9.192;2024-03-08T15:56:48;12.10;41.70
10300;DHT22;5195;48.562;9.192;2024-03-08T15:59:24;12.30;41.40
10300;DHT22;5195;48.562;9.192;2024-03-08T16:02:00;12.50;40.50
10300;DHT22;5195;48.562;9.192;2024-03-08T16:04:35;12.30;41.70
10300;DHT22;5195;48.562;9.192;2024-03-08T16:07:13;11.70;43.60
10300;DHT22;5195;48.562;9.192;2024-03-08T16:09:50;11.40;44.10
10300;DHT22;5195;48.562;9.192;2024-03-08T16:12:27;11.30;44.90
10300;DHT22;5195;48.562;9.192;2024-03-08T16:15:02;11.30;44.90
10300;DHT22;5195;48.562;9.192;2024-03-08T16:17:38;11.10;45.30
10300;DHT22;5195;48.562;9.192;2024-03-08T16:20:14;11.00;45.70
10300;DHT22;5195;48.562;9.192;2024-03-08T16:22:49;11.20;43.90
10300;DHT22;5195;48.562;9.192;2024-03-08T16:25:28;11.60;42.80
10300;DHT22;5195;48.562;9.192;2024-03-08T16:28:04;11.80;43.20
10300;DHT22;5195;48.562;9.192;2024-03-08T16:30:40;11.80;43.20
10300;DHT22;5195;48.562;9.192;2024-03-08T16:33:16;11.50;44.00
10300;DHT22;5195;48.562;9.192;2024-03-08T16:35:52;11.10;45.30
10300;DHT22;5195;48.562;9.192;2024-03-08T16:38:27;11.00;45.10
10300;DHT22;5195;48.562;9.192;2024-03-08T16:41:03;10.90;45.70
10300;DHT22;5195;48.562;9.192;2024-03-08T16:43:39;10.90;44.70
10300;DHT22;5195;48.562;9.192;2024-03-08T16:46:15;10.90;44.70
10300;DHT22;5195;48.562;9.192;2024-03-08T16:48:50;10.90;45.30
10300;DHT22;5195;48.562;9.192;2024-03-08T16:51:26;11.00;44.10
10300;DHT22;5195;48.562;9.192;2024-03-08T16:54:02;11.00;44.80
10300;DHT22;5195;48.562;9.192;2024-03-08T16:56:37;10.80;45.60